createdAt,value
2018-02-19T00:02:13.638Z,36.60
2018-02-19T00:04:41.289Z,36.60
2018-02-19T00:07:08.926Z,36.60
2018-02-19T00:09:36.598Z,36.50
2018-02-19T00:12:04.347Z,36.60
2018-02-19T00:14:31.994Z,36.50
2018-02-19T00:16:59.659Z,36.50
2018-02-19T00:19:27.321Z,36.50
2018-02-19T00:21:54.975Z,36.50
2018-02-19T00:24:22.615Z,36.50
2018-02-19T00:26:50.262Z,36.40
2018-02-19T00:29:18.680Z,36.40
2018-02-19T00:31:46.335Z,36.40
2018-02-19T00:34:14.015Z,36.30
2018-02-19T00:36:41.693Z,36.30
2018-02-19T00:39:09.352Z,36.20
2018-02-19T00:41:37.030Z,36.20
2018-02-19T00:44:05.434Z,36.20
2018-02-19T00:46:33.128Z,36.20
2018-02-19T00:49:00.785Z,36.20
2018-02-19T00:51:28.419Z,36.20
2018-02-19T00:53:56.136Z,36.10
2018-02-19T00:56:23.821Z,36.00
2018-02-19T00:58:52.232Z,36.00
2018-02-19T01:01:19.905Z,35.90
2018-02-19T01:03:47.599Z,35.90
2018-02-19T01:06:15.258Z,35.80
2018-02-19T01:08:42.925Z,35.80
2018-02-19T01:11:10.600Z,35.80
2018-02-19T01:13:39.079Z,35.70
2018-02-19T01:16:07.496Z,35.70
2018-02-19T01:18:35.145Z,36.30
2018-02-19T01:21:02.842Z,35.60
2018-02-19T01:23:30.526Z,35.60
2018-02-19T01:25:58.946Z,36.20
2018-02-19T01:28:26.615Z,35.50
2018-02-19T01:30:54.268Z,35.50
2018-02-19T01:33:21.999Z,35.60
2018-02-19T01:35:50.428Z,35.50
2018-02-19T01:38:18.076Z,35.50
2018-02-19T01:40:45.741Z,35.50
2018-02-19T01:43:13.433Z,35.40
2018-02-19T01:45:41.108Z,35.40
2018-02-19T01:48:08.778Z,35.30
2018-02-19T01:50:37.867Z,35.40
2018-02-19T01:53:05.527Z,35.40
2018-02-19T01:55:33.189Z,35.00
2018-02-19T01:58:00.849Z,35.50
2018-02-19T02:00:29.293Z,35.70
2018-02-19T02:02:57.032Z,35.60
2018-02-19T02:05:24.677Z,35.60
2018-02-19T02:07:53.192Z,35.70
2018-02-19T02:10:20.894Z,35.70
2018-02-19T02:12:48.551Z,35.70
2018-02-19T02:15:16.226Z,35.90
2018-02-19T02:17:44.633Z,35.90
2018-02-19T02:20:12.295Z,35.80
2018-02-19T02:22:39.950Z,36.00
2018-02-19T02:25:07.600Z,36.00
2018-02-19T02:27:36.012Z,36.00
2018-02-19T02:30:03.923Z,36.00
2018-02-19T02:32:32.343Z,36.00
2018-02-19T02:34:59.995Z,36.00
2018-02-19T02:37:27.666Z,35.90
2018-02-19T02:39:55.348Z,36.00
2018-02-19T02:42:23.016Z,36.00
2018-02-19T02:44:50.680Z,35.90
2018-02-19T02:47:19.080Z,36.00
2018-02-19T02:49:46.715Z,36.00
2018-02-19T02:52:14.473Z,36.10
2018-02-19T02:54:42.128Z,36.00
2018-02-19T02:57:09.760Z,36.10
2018-02-19T02:59:37.418Z,36.10
2018-02-19T03:02:05.086Z,36.00
2018-02-19T03:04:32.776Z,35.90
2018-02-19T03:07:00.486Z,35.90
2018-02-19T03:09:28.126Z,36.00
2018-02-19T03:11:56.696Z,36.00
2018-02-19T03:14:24.359Z,36.00
2018-02-19T03:16:52.036Z,36.00
2018-02-19T03:19:20.480Z,36.10
2018-02-19T03:21:48.134Z,36.00
2018-02-19T03:24:15.814Z,36.10
2018-02-19T03:26:43.507Z,36.10
2018-02-19T03:29:11.937Z,36.10
2018-02-19T03:31:39.612Z,36.10
2018-02-19T03:34:07.262Z,36.10
2018-02-19T03:36:34.923Z,36.10
2018-02-19T03:39:02.592Z,36.10
2018-02-19T03:41:30.270Z,36.10
2018-02-19T03:43:57.932Z,36.10
2018-02-19T03:46:25.661Z,36.20
2018-02-19T03:48:53.359Z,36.90
2018-02-19T03:51:21.802Z,36.30
2018-02-19T03:53:49.460Z,36.20
2018-02-19T03:56:17.123Z,36.20
2018-02-19T03:58:44.768Z,36.20
2018-02-19T04:01:12.469Z,36.20
2018-02-19T04:03:40.136Z,36.80
2018-02-19T04:06:07.796Z,36.10
2018-02-19T04:08:35.472Z,36.10
2018-02-19T04:11:03.887Z,36.00
2018-02-19T04:13:31.551Z,36.00
2018-02-19T04:16:00.043Z,35.80
2018-02-19T04:18:27.700Z,35.80
2018-02-19T04:20:55.374Z,35.80
2018-02-19T04:23:23.050Z,35.70
2018-02-19T04:25:50.724Z,35.70
2018-02-19T04:28:19.150Z,35.70
2018-02-19T04:30:46.835Z,35.70
2018-02-19T04:33:14.481Z,35.70
2018-02-19T04:35:42.942Z,35.60
2018-02-19T04:38:10.625Z,35.60
2018-02-19T04:40:38.276Z,35.50
2018-02-19T04:43:06.000Z,35.50
2018-02-19T04:45:37.100Z,35.50
2018-02-19T04:48:04.772Z,35.50
2018-02-19T04:50:32.432Z,35.50
2018-02-19T04:53:00.091Z,35.40
2018-02-19T04:55:27.771Z,35.30
2018-02-19T04:57:56.215Z,35.30
2018-02-19T05:00:23.914Z,35.30
2018-02-19T05:02:52.332Z,35.40
2018-02-19T05:05:19.993Z,35.40
2018-02-19T05:07:47.672Z,35.30
2018-02-19T05:10:15.348Z,35.30
2018-02-19T05:12:42.988Z,35.20
2018-02-19T05:15:10.635Z,35.20
2018-02-19T05:17:38.316Z,35.30
2018-02-19T05:20:05.955Z,35.30
2018-02-19T05:22:33.600Z,35.40
2018-02-19T05:25:01.261Z,35.40
2018-02-19T05:27:28.934Z,35.40
2018-02-19T05:29:56.595Z,35.30
2018-02-19T05:32:24.261Z,35.30
2018-02-19T05:34:51.923Z,35.20
2018-02-19T05:37:19.568Z,35.10
2018-02-19T05:39:47.234Z,35.00
2018-02-19T05:42:14.897Z,35.00
2018-02-19T05:44:42.533Z,35.00
2018-02-19T05:47:10.948Z,34.90
2018-02-19T05:49:38.632Z,34.90
2018-02-19T05:52:06.285Z,35.00
2018-02-19T05:54:33.929Z,34.90
2018-02-19T05:57:01.604Z,34.90
2018-02-19T05:59:29.245Z,34.80
2018-02-19T06:01:56.887Z,34.70
2018-02-19T06:04:24.552Z,34.60
2018-02-19T06:06:52.214Z,34.40
2018-02-19T06:09:19.848Z,34.30
2018-02-19T06:11:48.270Z,34.00
2018-02-19T06:14:15.924Z,34.00
2018-02-19T06:16:43.568Z,33.80
2018-02-19T06:19:11.207Z,33.70
2018-02-19T06:21:39.644Z,33.60
2018-02-19T06:24:07.312Z,33.60
2018-02-19T06:26:34.983Z,33.60
2018-02-19T06:29:02.630Z,33.60
2018-02-19T06:31:30.279Z,33.60
2018-02-19T06:33:58.691Z,33.40
2018-02-19T06:36:26.340Z,33.40
2018-02-19T06:38:54.010Z,33.90
2018-02-19T06:41:21.698Z,33.10
2018-02-19T06:43:49.451Z,33.10
2018-02-19T06:46:17.865Z,33.00
2018-02-19T06:48:45.499Z,32.90
2018-02-19T06:51:13.148Z,32.90
2018-02-19T06:53:41.558Z,33.00
2018-02-19T06:56:09.225Z,33.00
2018-02-19T06:58:36.885Z,33.00
2018-02-19T07:01:04.538Z,33.10
2018-02-19T07:03:32.203Z,33.10
2018-02-19T07:05:59.877Z,33.10
2018-02-19T07:08:28.312Z,33.10
2018-02-19T07:10:55.983Z,33.10
2018-02-19T07:13:23.673Z,33.00
2018-02-19T07:15:51.320Z,33.10
2018-02-19T07:18:19.002Z,32.90
2018-02-19T07:20:46.673Z,32.90
2018-02-19T07:23:14.371Z,32.90
2018-02-19T07:25:42.774Z,33.00
2018-02-19T07:28:10.412Z,33.00
2018-02-19T07:30:38.828Z,33.10
2018-02-19T07:33:06.497Z,33.00
2018-02-19T07:35:34.224Z,33.00
2018-02-19T07:38:02.005Z,32.90
2018-02-19T07:40:29.683Z,32.80
2018-02-19T07:42:57.334Z,32.70
2018-02-19T07:45:25.310Z,32.70
2018-02-19T07:47:52.973Z,32.70
2018-02-19T07:50:20.656Z,32.70
2018-02-19T07:52:48.304Z,32.70
2018-02-19T07:55:16.028Z,32.70
2018-02-19T07:57:43.667Z,32.60
2018-02-19T08:00:12.096Z,32.30
2018-02-19T08:02:39.822Z,32.30
2018-02-19T08:05:07.481Z,32.20
2018-02-19T08:07:35.128Z,32.20
2018-02-19T08:10:03.584Z,32.20
2018-02-19T08:12:31.300Z,32.20
2018-02-19T08:14:59.697Z,31.40
2018-02-19T08:17:27.351Z,31.30
2018-02-19T08:19:54.991Z,31.30
2018-02-19T08:22:23.527Z,31.30
2018-02-19T08:24:51.184Z,31.30
2018-02-19T08:27:18.834Z,31.20
2018-02-19T08:29:46.472Z,31.20
2018-02-19T08:32:14.137Z,31.20
2018-02-19T08:34:42.601Z,31.60
2018-02-19T08:37:10.251Z,30.90
2018-02-19T08:39:37.889Z,30.60
2018-02-19T08:42:06.313Z,30.60
2018-02-19T08:44:33.964Z,30.50
2018-02-19T08:47:01.634Z,30.50
2018-02-19T08:49:29.323Z,30.50
2018-02-19T08:51:56.982Z,30.50
2018-02-19T08:54:24.655Z,30.30
2018-02-19T08:56:52.297Z,30.30
2018-02-19T08:59:19.963Z,30.10
2018-02-19T09:01:47.622Z,30.00
2018-02-19T09:04:15.289Z,30.00
2018-02-19T09:06:42.955Z,30.00
2018-02-19T09:09:10.596Z,30.00
2018-02-19T09:11:39.008Z,30.00
2018-02-19T09:14:07.449Z,30.00
2018-02-19T09:16:35.151Z,29.90
2018-02-19T09:19:03.613Z,29.90
2018-02-19T09:21:31.293Z,29.90
2018-02-19T09:23:59.718Z,29.90
2018-02-19T09:26:27.387Z,29.90
2018-02-19T09:28:55.804Z,30.00
2018-02-19T09:31:24.248Z,30.00
2018-02-19T09:33:51.900Z,30.00
2018-02-19T09:36:19.567Z,30.10
2018-02-19T09:38:47.213Z,30.20
2018-02-19T09:41:14.851Z,30.20
2018-02-19T09:43:42.527Z,30.30
2018-02-19T09:46:10.182Z,30.20
2018-02-19T09:48:37.913Z,30.40
2018-02-19T09:51:06.378Z,30.40
2018-02-19T09:53:34.796Z,30.40
2018-02-19T09:56:02.431Z,30.30
2018-02-19T09:58:30.923Z,30.30
2018-02-19T10:00:58.616Z,30.30
2018-02-19T10:03:26.284Z,30.20
2018-02-19T10:05:53.927Z,30.10
2018-02-19T10:08:21.578Z,30.10
2018-02-19T10:10:49.237Z,30.00
2018-02-19T10:13:16.883Z,30.00
2018-02-19T10:15:44.535Z,29.90
2018-02-19T10:18:12.944Z,29.50
2018-02-19T10:20:40.577Z,29.50
2018-02-19T10:23:09.040Z,29.40
2018-02-19T10:25:37.472Z,29.40
2018-02-19T10:28:05.174Z,29.40
2018-02-19T10:30:32.844Z,29.20
2018-02-19T10:33:01.278Z,28.90
2018-02-19T10:35:28.912Z,28.90
2018-02-19T10:37:56.555Z,28.90
2018-02-19T10:40:25.034Z,29.00
2018-02-19T10:42:53.443Z,29.00
2018-02-19T10:45:21.167Z,29.00
2018-02-19T10:47:49.583Z,29.10
2018-02-19T10:50:17.231Z,29.10
2018-02-19T10:52:44.907Z,29.10
2018-02-19T10:55:12.583Z,29.10
2018-02-19T10:57:40.264Z,29.20
2018-02-19T11:00:08.178Z,29.00
2018-02-19T11:02:35.834Z,28.80
2018-02-19T11:05:03.489Z,28.50
2018-02-19T11:07:31.147Z,28.50
2018-02-19T11:09:59.565Z,28.50
2018-02-19T11:12:27.230Z,28.50
2018-02-19T11:14:54.917Z,28.60
2018-02-19T11:17:22.588Z,28.70
2018-02-19T11:19:50.226Z,28.80
2018-02-19T11:22:17.898Z,28.80
2018-02-19T11:24:45.547Z,28.70
2018-02-19T11:27:13.220Z,28.70
2018-02-19T11:29:40.880Z,28.60
2018-02-19T11:32:08.519Z,28.50
2018-02-19T11:34:36.176Z,28.40
2018-02-19T11:37:03.911Z,28.40
2018-02-19T11:39:31.566Z,28.40
2018-02-19T11:41:59.215Z,28.40
2018-02-19T11:44:27.632Z,28.50
2018-02-19T11:46:55.264Z,28.50
2018-02-19T11:49:22.957Z,28.60
2018-02-19T11:51:50.612Z,28.70
2018-02-19T11:54:18.248Z,28.70
2018-02-19T11:56:45.911Z,28.80
2018-02-19T11:59:13.564Z,29.10
2018-02-19T12:01:41.198Z,29.20
2018-02-19T12:04:09.603Z,29.20
2018-02-19T12:06:37.252Z,29.20
2018-02-19T12:09:05.673Z,29.00
2018-02-19T12:11:33.313Z,29.00
2018-02-19T12:14:00.968Z,29.10
2018-02-19T12:16:28.631Z,29.10
2018-02-19T12:18:56.267Z,29.20
2018-02-19T12:21:24.698Z,29.30
2018-02-19T12:23:52.348Z,29.30
2018-02-19T12:26:20.082Z,29.30
2018-02-19T12:28:47.773Z,29.30
2018-02-19T12:31:15.440Z,29.30
2018-02-19T12:33:43.113Z,29.30
2018-02-19T12:36:10.759Z,29.30
2018-02-19T12:38:39.167Z,29.40
2018-02-19T12:41:06.818Z,29.40
2018-02-19T12:43:34.539Z,29.40
2018-02-19T12:46:02.225Z,29.40
2018-02-19T12:48:29.914Z,29.30
2018-02-19T12:50:58.352Z,29.40
2018-02-19T12:53:26.050Z,29.20
2018-02-19T12:55:53.697Z,29.40
2018-02-19T12:58:21.348Z,29.40
2018-02-19T13:00:49.058Z,29.50
2018-02-19T13:03:16.799Z,29.50
2018-02-19T13:05:44.482Z,29.40
2018-02-19T13:08:12.915Z,29.70
2018-02-19T13:10:40.588Z,29.70
2018-02-19T13:13:08.254Z,29.80
2018-02-19T13:15:35.927Z,29.80
2018-02-19T13:18:04.360Z,29.80
2018-02-19T13:20:32.006Z,29.80
2018-02-19T13:22:59.661Z,29.80
2018-02-19T13:25:27.320Z,29.70
2018-02-19T13:27:54.966Z,29.80
2018-02-19T13:30:22.623Z,29.70
2018-02-19T13:32:51.066Z,29.90
2018-02-19T13:35:18.713Z,29.90
2018-02-19T13:37:46.371Z,30.00
2018-02-19T13:40:14.022Z,29.90
2018-02-19T13:42:41.687Z,29.90
2018-02-19T13:45:09.379Z,29.90
2018-02-19T13:47:37.055Z,30.00
2018-02-19T13:50:05.516Z,30.00
2018-02-19T13:52:33.211Z,30.00
2018-02-19T13:55:00.867Z,30.00
2018-02-19T13:57:29.303Z,30.00
2018-02-19T13:59:56.965Z,30.00
2018-02-19T14:02:24.623Z,30.00
2018-02-19T14:04:52.344Z,30.20
2018-02-19T14:07:19.997Z,30.30
2018-02-19T14:09:47.670Z,30.30
2018-02-19T14:12:15.330Z,30.20
2018-02-19T14:14:43.002Z,30.10
2018-02-19T14:17:10.685Z,30.20
2018-02-19T14:19:38.348Z,30.80
2018-02-19T14:22:06.008Z,30.20
2018-02-19T14:24:34.452Z,30.20
2018-02-19T14:27:02.126Z,30.20
2018-02-19T14:29:29.800Z,30.30
2018-02-19T14:31:57.470Z,30.40
2018-02-19T14:34:25.135Z,30.40
2018-02-19T14:36:52.865Z,30.50
2018-02-19T14:39:20.539Z,30.50
2018-02-19T14:41:48.230Z,30.50
2018-02-19T14:44:15.984Z,30.60
2018-02-19T14:46:43.666Z,30.60
2018-02-19T14:49:12.080Z,30.60
2018-02-19T14:51:39.748Z,30.60
2018-02-19T14:54:07.470Z,30.60
2018-02-19T14:56:35.917Z,31.10
2018-02-19T14:59:03.617Z,30.60
2018-02-19T15:01:32.022Z,30.60
2018-02-19T15:03:59.707Z,30.50
2018-02-19T15:06:27.368Z,30.60
2018-02-19T15:08:55.054Z,30.70
2018-02-19T15:11:22.774Z,30.80
2018-02-19T15:13:50.467Z,30.80
2018-02-19T15:16:18.175Z,30.80
2018-02-19T15:18:45.886Z,30.70
2018-02-19T15:21:13.540Z,30.70
2018-02-19T15:23:41.213Z,30.80
2018-02-19T15:26:10.601Z,30.90
2018-02-19T15:28:38.461Z,30.90
2018-02-19T15:31:06.113Z,30.80
2018-02-19T15:33:33.786Z,30.80
2018-02-19T15:36:01.441Z,30.90
2018-02-19T15:38:29.159Z,30.90
2018-02-19T15:40:57.610Z,30.90
2018-02-19T15:43:25.286Z,30.90
2018-02-19T15:45:53.703Z,30.80
2018-02-19T15:48:21.348Z,30.80
2018-02-19T15:50:48.982Z,30.80
2018-02-19T15:53:17.470Z,30.90
2018-02-19T15:55:45.904Z,31.00
2018-02-19T15:58:13.569Z,30.90
2018-02-19T16:00:41.211Z,31.00
2018-02-19T16:03:08.855Z,31.00
2018-02-19T16:05:36.487Z,31.00
2018-02-19T16:08:04.915Z,30.90
2018-02-19T16:10:32.681Z,30.90
2018-02-19T16:13:01.141Z,30.60
2018-02-19T16:15:28.791Z,30.60
2018-02-19T16:17:56.439Z,30.50
2018-02-19T16:20:24.898Z,30.60
2018-02-19T16:22:52.564Z,30.60
2018-02-19T16:25:21.039Z,30.60
2018-02-19T16:27:48.682Z,30.60
2018-02-19T16:30:16.347Z,30.60
2018-02-19T16:32:43.993Z,30.60
2018-02-19T16:35:11.766Z,30.60
2018-02-19T16:37:39.458Z,30.50
2018-02-19T16:40:07.904Z,30.40
2018-02-19T16:42:35.557Z,30.40
2018-02-19T16:45:03.257Z,30.40
2018-02-19T16:47:31.699Z,30.50
2018-02-19T16:49:59.383Z,30.50
2018-02-19T16:52:27.211Z,30.50
2018-02-19T16:54:55.282Z,30.60
2018-02-19T16:57:22.964Z,30.60
2018-02-19T16:59:50.615Z,30.60
2018-02-19T17:02:19.067Z,31.20
2018-02-19T17:04:46.787Z,30.50
2018-02-19T17:07:15.220Z,30.60
2018-02-19T17:09:43.631Z,30.60
2018-02-19T17:12:11.319Z,30.60
2018-02-19T17:14:41.893Z,30.60
2018-02-19T17:17:11.942Z,30.60
2018-02-19T17:19:40.404Z,30.70
2018-02-19T17:22:08.116Z,30.60
2018-02-19T17:24:35.786Z,30.80
2018-02-19T17:27:03.510Z,30.80
2018-02-19T17:29:31.967Z,30.90
2018-02-19T17:31:59.656Z,30.80
2018-02-19T17:34:28.144Z,30.80
2018-02-19T17:36:56.571Z,30.90
2018-02-19T17:39:24.226Z,30.80
2018-02-19T17:41:52.252Z,30.80
2018-02-19T17:44:20.958Z,30.70
2018-02-19T17:46:48.678Z,30.60
2018-02-19T17:49:16.326Z,30.50
2018-02-19T17:51:44.011Z,30.40
2018-02-19T17:54:12.429Z,30.30
2018-02-19T17:56:40.099Z,30.30
2018-02-19T17:59:08.095Z,30.30
2018-02-19T18:01:35.743Z,30.30
2018-02-19T18:04:03.439Z,30.20
2018-02-19T18:06:31.850Z,30.20
2018-02-19T18:09:01.100Z,30.10
2018-02-19T18:11:28.741Z,30.20
2018-02-19T18:13:56.388Z,30.20
2018-02-19T18:16:24.063Z,30.30
2018-02-19T18:18:51.834Z,30.30
2018-02-19T18:21:19.681Z,30.30
2018-02-19T18:23:47.452Z,30.30
2018-02-19T18:26:15.123Z,30.20
2018-02-19T18:28:42.779Z,30.10
2018-02-19T18:31:10.472Z,30.10
2018-02-19T18:33:38.916Z,30.00
2018-02-19T18:36:06.618Z,30.00
2018-02-19T18:38:35.146Z,30.00
2018-02-19T18:41:02.819Z,30.60
2018-02-19T18:43:30.494Z,30.00
2018-02-19T18:45:58.994Z,30.10
2018-02-19T18:48:27.484Z,30.00
2018-02-19T18:50:55.954Z,30.10
2018-02-19T18:53:24.399Z,30.00
2018-02-19T18:55:52.092Z,30.00
2018-02-19T18:58:20.574Z,30.00
2018-02-19T19:00:49.031Z,30.10
2018-02-19T19:03:16.724Z,30.10
2018-02-19T19:05:44.458Z,30.00
2018-02-19T19:08:38.723Z,30.00
2018-02-19T19:11:06.399Z,29.90
2018-02-19T19:13:34.075Z,29.90
2018-02-19T19:16:01.847Z,29.90
2018-02-19T19:18:30.283Z,29.90
2018-02-19T19:20:57.955Z,29.80
2018-02-19T19:23:25.676Z,29.90
2018-02-19T19:25:53.368Z,29.80
2018-02-19T19:28:21.053Z,29.80
2018-02-19T19:30:48.723Z,29.80
2018-02-19T19:33:17.180Z,29.80
2018-02-19T19:35:44.882Z,29.80
2018-02-19T19:38:12.559Z,29.80
2018-02-19T19:40:40.240Z,29.80
2018-02-19T19:43:07.960Z,29.80
2018-02-19T19:45:36.405Z,29.80
2018-02-19T19:48:04.101Z,29.80
2018-02-19T19:50:32.543Z,29.90
2018-02-19T19:53:00.290Z,29.90
2018-02-19T19:55:28.089Z,29.50
2018-02-19T19:57:55.782Z,29.70
2018-02-19T20:00:23.692Z,30.20
2018-02-19T20:02:51.367Z,30.00
2018-02-19T20:05:19.062Z,30.10
2018-02-19T20:07:46.746Z,30.20
2018-02-19T20:10:14.430Z,30.30
2018-02-19T20:12:43.045Z,30.40
2018-02-19T20:15:10.743Z,30.40
2018-02-19T20:17:38.437Z,30.40
2018-02-19T20:20:06.896Z,30.40
2018-02-19T20:22:34.603Z,30.40
2018-02-19T20:25:02.312Z,30.40
2018-02-19T20:27:29.999Z,30.40
2018-02-19T20:29:57.754Z,30.30
2018-02-19T20:32:25.500Z,30.40
2018-02-19T20:34:53.188Z,30.40
2018-02-19T20:37:20.884Z,30.30
2018-02-19T20:39:49.363Z,30.30
2018-02-19T20:42:17.843Z,30.20
2018-02-19T20:44:46.304Z,30.10
2018-02-19T20:47:13.991Z,30.00
2018-02-19T20:49:42.611Z,30.10
2018-02-19T20:52:10.364Z,30.10
2018-02-19T20:54:38.530Z,30.00
2018-02-19T20:57:06.812Z,30.00
2018-02-19T20:59:34.516Z,30.10
2018-02-19T21:02:02.290Z,30.30
2018-02-19T21:04:29.995Z,30.20
2018-02-19T21:06:57.792Z,30.20
2018-02-19T21:09:25.519Z,30.20
2018-02-19T21:11:54.206Z,30.30
2018-02-19T21:14:21.885Z,30.20
2018-02-19T21:16:49.583Z,30.20
2018-02-19T21:19:17.272Z,30.20
2018-02-19T21:21:44.997Z,30.30
2018-02-19T21:24:14.422Z,30.40
2018-02-19T21:26:42.890Z,30.40
2018-02-19T21:29:10.938Z,30.40
2018-02-19T21:31:38.651Z,30.40
2018-02-19T21:34:07.587Z,30.40
2018-02-19T21:36:35.385Z,30.40
2018-02-19T21:39:04.696Z,30.50
2018-02-19T21:41:33.143Z,30.40
2018-02-19T21:44:00.812Z,30.40
2018-02-19T21:46:28.851Z,30.30
2018-02-19T21:48:56.692Z,30.30
2018-02-19T21:51:24.464Z,30.30
2018-02-19T21:53:52.153Z,30.30
2018-02-19T21:56:19.854Z,30.20
2018-02-19T21:58:48.359Z,30.20
2018-02-19T22:01:16.047Z,30.20
2018-02-19T22:03:43.716Z,30.10
2018-02-19T22:06:11.434Z,30.10
2018-02-19T22:08:39.140Z,30.00
2018-02-19T22:11:06.827Z,30.00
2018-02-19T22:13:35.305Z,30.00
2018-02-19T22:16:02.986Z,30.00
2018-02-19T22:18:30.650Z,30.00
2018-02-19T22:20:59.121Z,30.00
2018-02-19T22:23:27.602Z,30.00
2018-02-19T22:25:56.055Z,30.00
2018-02-19T22:28:23.778Z,30.00
2018-02-19T22:30:51.474Z,29.90
2018-02-19T22:33:19.158Z,29.90
2018-02-19T22:35:47.624Z,29.90
2018-02-19T22:38:15.303Z,29.90
2018-02-19T22:40:43.773Z,29.90
2018-02-19T22:43:12.206Z,29.90
2018-02-19T22:45:39.872Z,29.80
2018-02-19T22:48:07.547Z,29.90
2018-02-19T22:50:35.280Z,29.90
2018-02-19T22:53:03.018Z,30.00
2018-02-19T22:55:31.474Z,30.00
2018-02-19T22:57:59.152Z,30.50
2018-02-19T23:00:27.687Z,30.00
2018-02-19T23:02:55.445Z,30.00
2018-02-19T23:05:23.131Z,30.00
2018-02-19T23:07:50.847Z,30.00
2018-02-19T23:10:18.603Z,29.90
2018-02-19T23:12:46.316Z,29.90
2018-02-19T23:15:14.018Z,29.90
2018-02-19T23:17:41.739Z,29.80
2018-02-19T23:20:09.423Z,29.90
2018-02-19T23:22:37.911Z,29.80
2018-02-19T23:25:05.632Z,29.70
2018-02-19T23:27:33.380Z,29.70
2018-02-19T23:30:01.071Z,29.60
2018-02-19T23:32:28.858Z,29.60
2018-02-19T23:35:02.369Z,29.50
2018-02-19T23:37:25.097Z,29.50
2018-02-19T23:39:53.606Z,29.50
2018-02-19T23:42:21.326Z,29.50
2018-02-19T23:44:49.023Z,29.40
2018-02-19T23:47:16.736Z,29.40
2018-02-19T23:49:44.468Z,29.30
2018-02-19T23:52:12.215Z,29.20
2018-02-19T23:54:39.962Z,29.20
2018-02-19T23:57:07.683Z,29.20
2018-02-19T23:59:35.409Z,29.20
